Pickle Lake, Ontario

Past 24 Hour Conditions

This table is a summary of hourly weather conditions for the past 24 hours. This summary includes the following parameters: temperature, humidity, dew point, wind speed and direction, air pressure, visibility and/or wind chill and humidex.
Date / Time
(EST)
Conditions Temp (°F) Humidity (%) Dew Point (°F) Wind (mph) Pressure (inches) Visibility (miles)
20 September 2014
00:00 N/A 53 93 51 NE 3 29.6 N/A
19 September 2014
23:00 N/A 54 94 52 NNE 4 29.6 N/A
22:00 N/A 55 94 54 NNE 4 29.5 N/A
21:00 N/A 57 94 55 NNE 3 29.5 N/A
20:00 N/A 58 94 56 NNW 7 29.5 N/A
19:00 N/A 59   95 57 W 6 29.5 N/A
18:00 N/A 59   95 57 W 8 29.5 N/A
17:00 N/A 59   94 57 WSW 8 29.5 N/A
16:00 N/A 58 94 57 WSW 10 29.4 N/A
15:00 N/A 58 94 57 SW 11 29.4 N/A
14:00 N/A 58 93 56 SW 12 gust 17 29.5 N/A
13:00 N/A 57 93 55 SW 13 gust 20 29.5 N/A
12:00 N/A 56 94 54 SW 9 29.5 N/A
11:00 N/A 55 92 53 SW 12 29.5 N/A
10:00 N/A 54 92 52 SSW 10 29.5 N/A
9:00 N/A 53 93 51 SW 10 29.5 N/A
8:00 N/A 51 94 50 SW 10 29.6 N/A
7:00 N/A 48 95 46 S 12 gust 18 29.5 N/A
6:00 N/A 44 95 43 SSE 12 29.6 N/A
5:00 N/A 43   95 42 SE 14 29.6 N/A
4:00 N/A 43   94 42 SSE 10 gust 21 29.7 N/A
3:00 N/A 43   92 41 SSW 11 gust 18 29.8 N/A
2:00 N/A 44 84 40 S 12 gust 18 29.8 N/A
1:00 N/A 46 75 38 SSW 15 gust 21 29.8 N/A
00:00 N/A 46 73 38 S 16 gust 24 29.8 N/A
N/A
Not available
 ↑ 
Highest temperature
 ↓ 
Lowest temperature

If you require additional historical weather information, please visit Climate Data Online.